createdAt,value
2022-08-22T00:01:37.254Z,66.57
2022-08-22T00:02:58.380Z,63.50
2022-08-22T00:03:00.233Z,64.40
2022-08-22T00:04:08.120Z,67.07
2022-08-22T00:06:52.467Z,66.64
2022-08-22T00:09:40.504Z,66.79
2022-08-22T00:12:24.065Z,66.92
2022-08-22T00:15:03.611Z,66.52
2022-08-22T00:17:37.144Z,66.83
2022-08-22T00:20:08.649Z,66.69
2022-08-22T00:22:47.594Z,66.61
2022-08-22T00:25:40.264Z,67.03
2022-08-22T00:28:21.357Z,66.97
2022-08-22T00:30:56.245Z,67.03
2022-08-22T00:33:41.994Z,67.17
2022-08-22T00:36:24.315Z,67.02
2022-08-22T00:39:18.930Z,67.40
2022-08-22T00:42:10.507Z,67.01
2022-08-22T00:44:56.955Z,67.37
2022-08-22T00:47:40.222Z,67.51
2022-08-22T00:50:33.702Z,67.34
2022-08-22T00:53:40.438Z,66.92
2022-08-22T00:56:31.210Z,67.06
2022-08-22T00:59:23.822Z,67.40
2022-08-22T01:02:02.586Z,66.84
2022-08-22T01:04:45.329Z,67.22
2022-08-22T01:07:38.281Z,66.87
2022-08-22T01:10:17.304Z,67.49
2022-08-22T01:13:03.325Z,67.17
2022-08-22T01:15:35.011Z,67.70
2022-08-22T01:18:26.374Z,67.16
2022-08-22T01:21:17.323Z,67.61
2022-08-22T01:24:06.979Z,67.14
2022-08-22T01:27:03.631Z,66.67
2022-08-22T01:29:48.786Z,67.36
2022-08-22T01:33:02.741Z,67.21
2022-08-22T01:35:53.410Z,67.13
2022-08-22T01:38:22.584Z,67.09
2022-08-22T01:41:17.328Z,67.41
2022-08-22T01:43:58.580Z,67.44
2022-08-22T01:46:36.165Z,67.64
2022-08-22T01:49:18.952Z,67.80
2022-08-22T01:51:50.184Z,67.80
2022-08-22T01:54:37.816Z,68.45
2022-08-22T01:57:08.329Z,68.42
2022-08-22T01:59:43.981Z,67.98
2022-08-22T02:02:13.447Z,68.39
2022-08-22T02:05:09.049Z,68.34
2022-08-22T02:07:56.457Z,68.33
2022-08-22T02:10:41.989Z,68.95
2022-08-22T02:13:33.338Z,68.74
2022-08-22T02:16:16.083Z,68.36
2022-08-22T02:19:09.890Z,68.81
2022-08-22T02:22:03.109Z,69.49
2022-08-22T02:24:52.483Z,69.22
2022-08-22T02:27:38.521Z,69.87
2022-08-22T02:30:20.152Z,69.49
2022-08-22T02:33:08.831Z,69.93
2022-08-22T02:36:13.997Z,69.39
2022-08-22T02:38:57.298Z,69.99
2022-08-22T02:41:37.351Z,69.57
2022-08-22T02:44:17.212Z,70.27
2022-08-22T02:46:51.697Z,70.32
2022-08-22T02:49:51.339Z,69.61
2022-08-22T02:52:25.349Z,69.60
2022-08-22T02:55:08.072Z,69.85
2022-08-22T02:57:44.846Z,69.86
2022-08-22T03:00:33.039Z,69.72
2022-08-22T03:03:14.498Z,70.85
2022-08-22T03:05:51.720Z,69.55
2022-08-22T03:08:25.925Z,70.47
2022-08-22T03:11:06.124Z,70.36
2022-08-22T03:13:57.181Z,69.80
2022-08-22T03:17:02.646Z,69.35
2022-08-22T03:20:06.395Z,69.90
2022-08-22T03:22:43.627Z,70.26
2022-08-22T03:25:24.445Z,70.88
2022-08-22T03:28:03.341Z,70.79
2022-08-22T03:30:56.334Z,70.63
2022-08-22T03:33:26.312Z,70.35
2022-08-22T03:35:52.790Z,70.68
2022-08-22T03:38:45.648Z,70.81
2022-08-22T03:41:50.676Z,70.85
2022-08-22T03:44:18.186Z,71.29
2022-08-22T03:47:16.885Z,71.19
2022-08-22T03:50:11.773Z,70.77
2022-08-22T03:53:18.639Z,71.70
2022-08-22T03:55:51.856Z,71.79
2022-08-22T03:58:34.553Z,71.80
2022-08-22T04:01:22.888Z,72.09
2022-08-22T04:04:10.918Z,71.63
2022-08-22T04:06:50.574Z,71.84
2022-08-22T04:09:56.548Z,71.22
2022-08-22T04:12:41.800Z,70.09
2022-08-22T04:15:36.570Z,70.89
2022-08-22T04:18:26.799Z,70.68
2022-08-22T04:21:40.000Z,71.59
2022-08-22T04:24:27.896Z,72.22
2022-08-22T04:26:59.283Z,72.99
2022-08-22T04:29:38.783Z,71.99
2022-08-22T04:32:20.034Z,72.43
2022-08-22T04:34:59.222Z,72.32
2022-08-22T04:37:39.335Z,71.93
2022-08-22T04:40:22.066Z,72.92
2022-08-22T04:43:01.791Z,71.67
2022-08-22T04:45:57.325Z,72.85
2022-08-22T04:48:57.054Z,72.48
2022-08-22T04:51:34.121Z,72.18
2022-08-22T04:54:37.596Z,73.98
2022-08-22T04:57:27.254Z,73.13
2022-08-22T05:00:03.811Z,73.39
2022-08-22T05:02:31.219Z,73.49
2022-08-22T05:05:13.170Z,73.45
2022-08-22T05:07:48.376Z,72.74
2022-08-22T05:10:39.001Z,73.04
2022-08-22T05:13:07.766Z,72.55
2022-08-22T05:15:37.955Z,73.34
2022-08-22T05:18:18.201Z,73.19
2022-08-22T05:20:49.305Z,73.07
2022-08-22T05:23:24.705Z,73.06
2022-08-22T05:25:56.686Z,73.01
2022-08-22T05:28:39.121Z,72.49
2022-08-22T05:31:12.041Z,73.37
2022-08-22T05:33:45.250Z,71.68
2022-08-22T05:36:27.446Z,72.48
2022-08-22T05:39:21.151Z,71.54
2022-08-22T05:41:53.763Z,71.61
2022-08-22T05:44:34.017Z,72.57
2022-08-22T05:47:21.165Z,72.66
2022-08-22T05:50:02.706Z,72.05
2022-08-22T05:53:06.339Z,71.61
2022-08-22T05:55:39.616Z,72.89
2022-08-22T05:58:31.514Z,73.32
2022-08-22T06:01:25.196Z,73.44
2022-08-22T06:04:09.920Z,72.70
2022-08-22T06:06:51.082Z,71.88
2022-08-22T06:09:38.324Z,72.94
2022-08-22T06:12:21.879Z,72.52
2022-08-22T06:15:11.575Z,71.83
2022-08-22T06:17:49.046Z,71.00
2022-08-22T06:20:27.037Z,72.10
2022-08-22T06:23:01.955Z,71.81
2022-08-22T06:25:40.664Z,71.82
2022-08-22T06:28:13.495Z,71.52
2022-08-22T06:30:45.483Z,71.38
2022-08-22T06:33:17.703Z,70.95
2022-08-22T06:36:07.778Z,71.72
2022-08-22T06:38:56.308Z,71.97
2022-08-22T06:41:27.977Z,71.66
2022-08-22T06:43:57.274Z,71.91
2022-08-22T06:46:29.036Z,72.24
2022-08-22T06:49:00.208Z,71.79
2022-08-22T06:51:29.291Z,72.44
2022-08-22T06:54:01.403Z,72.28
2022-08-22T06:56:37.642Z,71.87
2022-08-22T06:59:12.691Z,71.90
2022-08-22T07:01:46.669Z,71.57
2022-08-22T07:04:13.391Z,71.61
2022-08-22T07:06:44.477Z,70.77
2022-08-22T07:09:25.263Z,70.96
2022-08-22T07:11:54.276Z,70.43
2022-08-22T07:14:38.707Z,70.32
2022-08-22T07:17:08.871Z,69.80
2022-08-22T07:19:41.641Z,68.92
2022-08-22T07:22:17.470Z,68.15
2022-08-22T07:24:55.563Z,67.55
2022-08-22T07:27:37.306Z,68.47
2022-08-22T07:30:16.921Z,66.77
2022-08-22T07:33:25.822Z,67.03
2022-08-22T07:35:54.595Z,66.50
2022-08-22T07:38:37.516Z,66.15
2022-08-22T07:41:13.263Z,66.05
2022-08-22T07:43:46.670Z,65.78
2022-08-22T07:46:32.923Z,65.20
2022-08-22T07:49:16.462Z,63.89
2022-08-22T07:51:48.000Z,63.90
2022-08-22T07:54:20.986Z,63.29
2022-08-22T07:57:04.501Z,62.86
2022-08-22T07:59:36.058Z,63.01
2022-08-22T08:02:07.944Z,61.99
2022-08-22T08:04:40.251Z,60.83
2022-08-22T08:07:10.748Z,60.81
2022-08-22T08:10:09.952Z,60.31
2022-08-22T08:12:54.168Z,60.28
2022-08-22T08:15:32.265Z,60.30
2022-08-22T08:18:06.081Z,59.54
2022-08-22T08:20:36.466Z,59.36
2022-08-22T08:23:08.317Z,58.80
2022-08-22T08:25:58.087Z,58.37
2022-08-22T08:28:34.631Z,57.40
2022-08-22T08:31:10.566Z,57.62
2022-08-22T08:33:40.979Z,57.46
2022-08-22T08:36:15.816Z,57.45
2022-08-22T08:38:55.085Z,56.87
2022-08-22T08:41:27.559Z,56.44
2022-08-22T08:44:23.358Z,55.84
2022-08-22T08:47:23.836Z,56.64
2022-08-22T08:50:15.431Z,56.75
2022-08-22T08:53:16.045Z,56.89
2022-08-22T08:56:06.159Z,55.94
2022-08-22T08:58:53.686Z,55.77
2022-08-22T09:01:21.102Z,55.60
2022-08-22T09:04:20.431Z,55.07
2022-08-22T09:07:24.008Z,55.02
2022-08-22T09:10:29.746Z,53.97
2022-08-22T09:13:27.230Z,53.10
2022-08-22T09:16:10.039Z,54.37
2022-08-22T09:18:57.404Z,52.66
2022-08-22T09:22:00.735Z,51.66
2022-08-22T09:24:47.805Z,51.00
2022-08-22T09:27:42.941Z,50.50
2022-08-22T09:30:28.574Z,50.31
2022-08-22T09:33:02.627Z,50.43
2022-08-22T09:35:51.088Z,49.03
2022-08-22T09:38:26.228Z,48.62
2022-08-22T09:41:05.970Z,47.59
2022-08-22T09:44:01.177Z,48.67
2022-08-22T09:46:40.337Z,48.73
2022-08-22T09:49:16.443Z,47.79
2022-08-22T09:51:58.187Z,46.63
2022-08-22T09:54:43.381Z,45.65
2022-08-22T09:57:41.559Z,45.90
2022-08-22T10:00:10.734Z,44.95
2022-08-22T10:02:45.559Z,44.13
2022-08-22T10:05:40.872Z,43.71
2022-08-22T10:08:11.507Z,44.54
2022-08-22T10:11:02.553Z,43.86
2022-08-22T10:13:38.564Z,43.50
2022-08-22T10:16:33.493Z,43.65
2022-08-22T10:19:09.000Z,43.19
2022-08-22T10:22:06.222Z,42.20
2022-08-22T10:25:18.570Z,41.36
2022-08-22T10:28:10.574Z,41.16
2022-08-22T10:31:13.779Z,40.63
2022-08-22T10:34:02.668Z,39.94
2022-08-22T10:36:45.255Z,39.96
2022-08-22T10:39:22.604Z,40.93
2022-08-22T10:42:24.262Z,39.92
2022-08-22T10:45:35.429Z,39.63
2022-08-22T10:48:10.007Z,38.96
2022-08-22T10:50:52.234Z,38.63
2022-08-22T10:53:37.189Z,38.15
2022-08-22T10:56:21.539Z,38.44
2022-08-22T10:59:09.519Z,37.93
2022-08-22T11:01:44.687Z,37.98
2022-08-22T11:04:28.053Z,38.75
2022-08-22T11:07:11.080Z,39.27
2022-08-22T11:09:45.670Z,39.14
2022-08-22T11:12:19.369Z,38.54
2022-08-22T11:15:12.873Z,37.68
2022-08-22T11:18:01.469Z,36.98
2022-08-22T11:20:42.975Z,35.83
2022-08-22T11:23:12.728Z,36.06
2022-08-22T11:26:07.434Z,35.94
2022-08-22T11:29:13.156Z,35.78
2022-08-22T11:32:05.636Z,36.66
2022-08-22T11:34:34.303Z,35.70
2022-08-22T11:37:43.244Z,36.53
2022-08-22T11:40:32.993Z,36.99
2022-08-22T11:43:18.304Z,37.29
2022-08-22T11:45:51.493Z,35.20
2022-08-22T11:48:28.352Z,33.12
2022-08-22T11:51:13.721Z,34.36
2022-08-22T11:53:47.757Z,34.46
2022-08-22T11:56:49.941Z,31.66
2022-08-22T11:59:32.503Z,30.97
2022-08-22T12:02:05.049Z,31.33
2022-08-22T12:04:45.962Z,31.16
2022-08-22T12:07:18.688Z,33.44
2022-08-22T12:10:16.324Z,33.47
2022-08-22T12:13:34.943Z,31.36
2022-08-22T12:16:22.390Z,31.60
2022-08-22T12:20:12.773Z,32.68
2022-08-22T12:23:15.143Z,32.97
2022-08-22T12:26:22.058Z,33.99
2022-08-22T12:29:27.585Z,33.95
2022-08-22T12:32:27.821Z,35.32
2022-08-22T12:35:32.050Z,37.08
2022-08-22T12:38:28.777Z,35.96
2022-08-22T12:41:36.047Z,35.17
2022-08-22T12:44:27.519Z,35.54
2022-08-22T12:47:20.257Z,35.48
2022-08-22T12:50:12.312Z,35.86
2022-08-22T12:52:59.101Z,35.85
2022-08-22T12:55:46.539Z,35.83
2022-08-22T12:58:51.182Z,36.38
2022-08-22T13:01:19.212Z,35.79
2022-08-22T13:03:58.070Z,32.14
2022-08-22T13:06:33.621Z,32.78
2022-08-22T13:09:11.064Z,31.81
2022-08-22T13:11:41.605Z,32.64
2022-08-22T13:14:18.552Z,32.22
2022-08-22T13:16:56.963Z,31.84
2022-08-22T13:19:37.840Z,31.79
2022-08-22T13:22:13.499Z,32.39
2022-08-22T13:24:55.091Z,33.59
2022-08-22T13:27:30.351Z,34.32
2022-08-22T13:30:04.213Z,33.45
2022-08-22T13:32:46.283Z,33.46
2022-08-22T13:35:34.355Z,32.15
2022-08-22T13:38:14.995Z,32.68
2022-08-22T13:40:56.651Z,32.11
2022-08-22T13:43:46.472Z,31.83
2022-08-22T13:46:26.399Z,32.17
2022-08-22T13:49:01.280Z,31.63
2022-08-22T13:52:14.511Z,32.17
2022-08-22T13:55:12.266Z,32.11
2022-08-22T13:57:53.806Z,32.17
2022-08-22T14:00:28.767Z,32.25
2022-08-22T14:03:19.242Z,33.18
2022-08-22T14:05:53.777Z,31.85
2022-08-22T14:08:37.052Z,32.19
2022-08-22T14:11:12.096Z,32.39
2022-08-22T14:13:47.369Z,31.95
2022-08-22T14:16:25.504Z,32.19
2022-08-22T14:18:57.265Z,31.71
2022-08-22T14:21:42.367Z,31.86
2022-08-22T14:24:09.538Z,32.23
2022-08-22T14:26:47.847Z,31.86
2022-08-22T14:29:18.866Z,32.31
2022-08-22T14:32:08.790Z,32.39
2022-08-22T14:34:42.476Z,31.93
2022-08-22T14:37:24.922Z,31.18
2022-08-22T14:40:02.229Z,31.54
2022-08-22T14:42:44.443Z,31.02
2022-08-22T14:45:24.719Z,34.14
2022-08-22T14:48:29.985Z,31.90
2022-08-22T14:50:56.644Z,31.75
2022-08-22T14:53:33.254Z,31.62
2022-08-22T14:56:22.018Z,32.03
2022-08-22T14:58:58.842Z,30.93
2022-08-22T15:01:29.928Z,29.89
2022-08-22T15:04:07.991Z,29.97
2022-08-22T15:06:53.717Z,29.97
2022-08-22T15:09:25.803Z,30.20
2022-08-22T15:11:53.446Z,28.98
2022-08-22T15:14:27.842Z,29.15
2022-08-22T15:17:00.629Z,28.61
2022-08-22T15:19:35.536Z,28.66
2022-08-22T15:22:25.598Z,28.14
2022-08-22T15:25:40.878Z,27.87
2022-08-22T15:28:17.150Z,28.18
2022-08-22T15:31:03.987Z,27.77
2022-08-22T15:33:34.671Z,27.71
2022-08-22T15:36:11.189Z,27.96
2022-08-22T15:38:48.061Z,28.06
2022-08-22T15:41:41.072Z,27.16
2022-08-22T15:44:30.886Z,25.95
2022-08-22T15:47:11.753Z,26.06
2022-08-22T15:50:01.919Z,25.65
2022-08-22T15:52:35.868Z,26.00
2022-08-22T15:55:17.308Z,25.19
2022-08-22T15:58:13.017Z,25.04
2022-08-22T16:01:03.145Z,25.59
2022-08-22T16:03:33.172Z,24.52
2022-08-22T16:06:01.824Z,24.55
2022-08-22T16:08:37.136Z,24.71
2022-08-22T16:11:23.844Z,25.00
2022-08-22T16:14:39.436Z,24.19
2022-08-22T16:17:28.776Z,23.91
2022-08-22T16:20:20.122Z,23.30
2022-08-22T16:23:08.015Z,22.92
2022-08-22T16:25:51.977Z,25.55
2022-08-22T16:28:57.336Z,23.72
2022-08-22T16:31:34.012Z,22.45
2022-08-22T16:34:36.410Z,23.74
2022-08-22T16:37:03.009Z,23.39
2022-08-22T16:39:36.140Z,23.64
2022-08-22T16:42:15.774Z,24.63
2022-08-22T16:44:49.989Z,23.66
2022-08-22T16:47:41.465Z,23.57
2022-08-22T16:50:23.323Z,23.99
2022-08-22T16:53:31.168Z,24.20
2022-08-22T16:56:17.369Z,22.47
2022-08-22T16:59:23.337Z,22.12
2022-08-22T17:02:09.903Z,23.97
2022-08-22T17:05:02.836Z,23.36
2022-08-22T17:07:37.324Z,22.02
2022-08-22T17:10:24.851Z,21.25
2022-08-22T17:13:10.084Z,21.43
2022-08-22T17:15:55.251Z,21.13
2022-08-22T17:18:40.221Z,21.20
2022-08-22T17:21:25.785Z,22.29
2022-08-22T17:24:32.411Z,21.59
2022-08-22T17:27:25.712Z,21.68
2022-08-22T17:30:24.932Z,20.48
2022-08-22T17:33:11.780Z,21.08
2022-08-22T17:36:26.856Z,21.52
2022-08-22T17:39:42.498Z,21.21
2022-08-22T17:42:38.148Z,23.12
2022-08-22T17:45:07.760Z,25.88
2022-08-22T17:47:44.532Z,27.55
2022-08-22T17:50:22.740Z,29.91
2022-08-22T17:52:54.893Z,29.84
2022-08-22T17:55:52.313Z,30.90
2022-08-22T17:58:37.736Z,32.80
2022-08-22T18:01:13.674Z,34.87
2022-08-22T18:03:52.716Z,35.98
2022-08-22T18:06:26.549Z,36.16
2022-08-22T18:09:18.326Z,37.08
2022-08-22T18:12:15.749Z,37.17
2022-08-22T18:15:00.506Z,37.41
2022-08-22T18:17:33.461Z,37.57
2022-08-22T18:20:09.713Z,37.61
2022-08-22T18:22:41.415Z,36.51
2022-08-22T18:25:30.171Z,37.58
2022-08-22T18:28:14.763Z,38.34
2022-08-22T18:31:09.384Z,39.92
2022-08-22T18:33:49.739Z,38.42
2022-08-22T18:36:27.600Z,39.86
2022-08-22T18:39:05.332Z,39.97
2022-08-22T18:41:47.255Z,40.00
2022-08-22T18:44:22.193Z,40.19
2022-08-22T18:46:52.151Z,41.60
2022-08-22T18:49:19.493Z,41.97
2022-08-22T18:52:13.928Z,42.02
2022-08-22T18:55:18.091Z,41.99
2022-08-22T18:58:04.765Z,41.72
2022-08-22T19:00:55.992Z,42.14
2022-08-22T19:03:38.120Z,42.30
2022-08-22T19:06:46.239Z,43.03
2022-08-22T19:09:22.814Z,42.92
2022-08-22T19:12:07.643Z,42.91
2022-08-22T19:15:16.583Z,43.30
2022-08-22T19:18:28.348Z,44.22
2022-08-22T19:21:46.875Z,44.63
2022-08-22T19:24:25.175Z,44.72
2022-08-22T19:27:07.176Z,44.89
2022-08-22T19:29:33.605Z,45.43
2022-08-22T19:32:03.093Z,44.88
2022-08-22T19:34:32.697Z,46.13
2022-08-22T19:37:31.115Z,46.12
2022-08-22T19:40:05.285Z,45.83
2022-08-22T19:42:35.975Z,46.41
2022-08-22T19:45:07.831Z,46.39
2022-08-22T19:47:39.268Z,46.70
2022-08-22T19:50:23.880Z,47.03
2022-08-22T19:53:25.050Z,47.44
2022-08-22T19:56:13.638Z,47.77
2022-08-22T19:59:06.798Z,48.30
2022-08-22T20:01:46.038Z,48.32
2022-08-22T20:04:51.419Z,48.70
2022-08-22T20:07:36.273Z,48.97
2022-08-22T20:10:29.885Z,49.10
2022-08-22T20:13:05.157Z,49.62
2022-08-22T20:15:36.058Z,49.64
2022-08-22T20:18:46.437Z,50.04
2022-08-22T20:21:00.211Z,50.22
2022-08-22T20:23:32.136Z,50.20
2022-08-22T20:25:59.575Z,49.96
2022-08-22T20:28:47.687Z,49.89
2022-08-22T20:31:27.104Z,50.02
2022-08-22T20:34:16.798Z,50.23
2022-08-22T20:36:45.710Z,49.67
2022-08-22T20:39:26.302Z,50.53
2022-08-22T20:42:01.063Z,50.60
2022-08-22T20:47:07.834Z,51.34
2022-08-22T20:49:48.592Z,51.45
2022-08-22T20:52:28.407Z,51.14
2022-08-22T20:55:31.539Z,51.49
2022-08-22T20:58:04.174Z,51.13
2022-08-22T21:00:40.522Z,50.76
2022-08-22T21:03:43.506Z,51.46
2022-08-22T21:06:16.353Z,51.66
2022-08-22T21:08:44.616Z,51.51
2022-08-22T21:11:39.391Z,51.22
2022-08-22T21:14:23.887Z,50.65
2022-08-22T21:16:52.594Z,51.16
2022-08-22T21:19:24.382Z,51.30
2022-08-22T21:21:50.913Z,51.16
2022-08-22T21:24:17.894Z,51.84
2022-08-22T21:26:55.488Z,52.40
2022-08-22T21:29:32.410Z,53.12
2022-08-22T21:32:17.243Z,53.11
2022-08-22T21:34:46.926Z,53.01
2022-08-22T21:37:25.218Z,52.80
2022-08-22T21:40:05.561Z,52.85
2022-08-22T21:42:41.757Z,53.09
2022-08-22T21:45:27.867Z,53.21
2022-08-22T21:47:54.874Z,53.26
2022-08-22T21:50:24.769Z,53.49
2022-08-22T21:52:54.147Z,53.63
2022-08-22T21:55:27.741Z,54.02
2022-08-22T21:58:06.662Z,53.98
2022-08-22T22:00:48.785Z,54.06
2022-08-22T22:03:21.455Z,53.85
2022-08-22T22:05:49.439Z,53.73
2022-08-22T22:08:17.389Z,53.79
2022-08-22T22:10:46.375Z,54.42
2022-08-22T22:13:13.630Z,54.67
2022-08-22T22:15:44.285Z,55.14
2022-08-22T22:18:13.084Z,55.20
2022-08-22T22:20:40.401Z,55.27
2022-08-22T22:23:07.857Z,55.43
2022-08-22T22:25:40.155Z,55.55
2022-08-22T22:28:14.726Z,55.46
2022-08-22T22:30:43.162Z,55.63
2022-08-22T22:33:11.326Z,55.41
2022-08-22T22:35:39.997Z,55.63
2022-08-22T22:38:07.772Z,55.70
2022-08-22T22:40:35.145Z,55.90
2022-08-22T22:43:01.686Z,56.24
2022-08-22T22:45:28.467Z,56.35
2022-08-22T22:47:55.368Z,56.61
2022-08-22T22:50:22.002Z,56.59
2022-08-22T22:52:48.742Z,56.65
2022-08-22T22:55:24.343Z,56.65
2022-08-22T22:57:58.439Z,56.88
2022-08-22T23:00:25.763Z,56.88
2022-08-22T23:02:57.327Z,56.77
2022-08-22T23:05:23.933Z,57.00
2022-08-22T23:07:50.664Z,56.50
2022-08-22T23:10:21.769Z,56.82
2022-08-22T23:12:48.758Z,57.01
2022-08-22T23:15:15.351Z,56.92
2022-08-22T23:17:42.771Z,56.87
2022-08-22T23:20:11.032Z,57.06
2022-08-22T23:22:37.605Z,57.42
2022-08-22T23:25:05.174Z,57.74
2022-08-22T23:27:32.087Z,57.61
2022-08-22T23:29:58.589Z,57.46
2022-08-22T23:32:25.135Z,57.89
2022-08-22T23:34:53.052Z,58.10
2022-08-22T23:37:21.700Z,58.42
2022-08-22T23:39:48.963Z,58.14
2022-08-22T23:42:17.991Z,58.44
2022-08-22T23:44:45.909Z,58.45
2022-08-22T23:47:14.466Z,58.20
2022-08-22T23:49:42.358Z,58.59
2022-08-22T23:52:10.162Z,58.73
2022-08-22T23:54:37.267Z,59.49
2022-08-22T23:57:11.790Z,59.84
2022-08-22T23:59:46.450Z,59.75
